Terminal Aerodrome Forecast
Issued by NWS

Home | Current Version | Previous Version | Text Only | Print | Product List | Glossary On
Versions: 1 2 3 4 5 6 7 8 9 10 11 12 13 14 15 16 17
556
FTUS43 KILX 102327
TAFDEC
TAF
KDEC 102327Z 1100/1124 31010KT P6SM FEW250
     FM110500 VRB06KT P6SM FEW250
     FM111400 19008KT P6SM BKN200
     FM112000 23012KT P6SM SCT250
     FM112300 28012KT P6SM BKN090=

USA.gov is the U.S. government's official web portal to all federal, state and local government web resources and services.